createdAt,value
2023-02-28T00:00:40.006Z,4.20
2023-02-28T00:03:07.517Z,3.90
2023-02-28T00:05:34.975Z,4.13
2023-02-28T00:08:02.318Z,4.20
2023-02-28T00:10:31.007Z,4.23
2023-02-28T00:13:01.859Z,4.13
2023-02-28T00:15:29.441Z,4.40
2023-02-28T00:17:56.996Z,5.77
2023-02-28T00:20:24.737Z,5.00
2023-02-28T00:22:53.051Z,5.70
2023-02-28T00:25:22.654Z,4.80
2023-02-28T00:27:50.056Z,5.77
2023-02-28T00:30:18.261Z,5.43
2023-02-28T00:32:45.697Z,6.00
2023-02-28T00:35:13.569Z,5.80
2023-02-28T00:37:42.867Z,5.90
2023-02-28T00:40:11.023Z,4.93
2023-02-28T00:42:38.623Z,5.27
2023-02-28T00:45:06.352Z,5.60
2023-02-28T00:47:34.098Z,5.80
2023-02-28T00:50:02.039Z,5.80
2023-02-28T00:52:29.422Z,6.53
2023-02-28T00:54:56.954Z,6.03
2023-02-28T00:57:24.371Z,5.50
2023-02-28T00:59:51.901Z,6.00
2023-02-28T01:02:20.922Z,6.10
2023-02-28T01:04:48.843Z,6.40
2023-02-28T01:07:16.401Z,6.83
2023-02-28T01:09:43.896Z,6.43
2023-02-28T01:12:11.408Z,6.50
2023-02-28T01:14:38.903Z,6.00
2023-02-28T01:17:07.138Z,6.00
2023-02-28T01:19:36.325Z,6.77
2023-02-28T01:22:05.077Z,6.10
2023-02-28T01:24:34.362Z,6.57
2023-02-28T01:27:02.032Z,6.50
2023-02-28T01:29:29.579Z,6.10
2023-02-28T01:31:58.200Z,5.80
2023-02-28T01:34:25.711Z,5.73
2023-02-28T01:36:53.128Z,6.50
2023-02-28T01:39:21.100Z,6.00
2023-02-28T01:41:48.554Z,6.30
2023-02-28T01:44:35.546Z,6.47
2023-02-28T01:47:02.973Z,6.80
2023-02-28T01:49:30.467Z,6.00
2023-02-28T01:51:59.182Z,6.17
2023-02-28T01:54:30.345Z,6.37
2023-02-28T01:57:06.014Z,6.37
2023-02-28T01:59:39.415Z,6.17
2023-02-28T02:02:07.151Z,6.20
2023-02-28T02:04:39.083Z,6.17
2023-02-28T02:07:06.506Z,6.30
2023-02-28T02:09:33.987Z,6.13
2023-02-28T02:12:05.349Z,6.20
2023-02-28T02:14:33.387Z,5.97
2023-02-28T02:17:20.097Z,6.60
2023-02-28T02:20:05.618Z,6.13
2023-02-28T02:22:49.501Z,5.70
2023-02-28T02:25:27.740Z,5.60
2023-02-28T02:28:09.401Z,5.77
2023-02-28T02:30:38.603Z,5.13
2023-02-28T02:33:20.781Z,5.67
2023-02-28T02:35:57.618Z,6.10
2023-02-28T02:38:34.014Z,6.37
2023-02-28T02:41:10.146Z,6.00
2023-02-28T02:43:43.496Z,5.77
2023-02-28T02:46:17.209Z,5.70
2023-02-28T02:48:47.206Z,4.97
2023-02-28T02:51:18.883Z,5.63
2023-02-28T02:53:51.795Z,5.63
2023-02-28T02:56:21.361Z,5.73
2023-02-28T02:58:51.146Z,5.67
2023-02-28T03:01:28.985Z,5.40
2023-02-28T03:03:59.133Z,6.00
2023-02-28T03:06:27.405Z,5.97
2023-02-28T03:08:54.839Z,6.13
2023-02-28T03:11:24.295Z,5.53
2023-02-28T03:13:51.763Z,5.80
2023-02-28T03:16:35.046Z,4.73
2023-02-28T03:19:21.580Z,5.10
2023-02-28T03:21:55.200Z,5.70
2023-02-28T03:24:32.737Z,5.27
2023-02-28T03:27:03.644Z,5.50
2023-02-28T03:29:34.128Z,5.40
2023-02-28T03:32:08.937Z,5.90
2023-02-28T03:34:39.930Z,6.17
2023-02-28T03:37:13.670Z,5.60
2023-02-28T03:39:49.047Z,5.43
2023-02-28T03:42:23.576Z,5.97
2023-02-28T03:45:02.214Z,5.77
2023-02-28T03:47:44.600Z,5.60
2023-02-28T03:50:14.470Z,4.73
2023-02-28T03:52:46.082Z,5.67
2023-02-28T03:55:14.995Z,5.30
2023-02-28T03:57:48.275Z,5.40
2023-02-28T04:00:22.837Z,5.30
2023-02-28T04:02:53.547Z,5.13
2023-02-28T04:05:23.948Z,5.00
2023-02-28T04:07:51.195Z,5.10
2023-02-28T04:10:19.008Z,5.23
2023-02-28T04:12:46.133Z,5.50
2023-02-28T04:15:13.345Z,5.40
2023-02-28T04:17:40.530Z,4.80
2023-02-28T04:20:10.493Z,5.33
2023-02-28T04:22:38.239Z,4.93
2023-02-28T04:25:06.878Z,4.80
2023-02-28T04:27:34.141Z,5.40
2023-02-28T04:30:01.336Z,4.80
2023-02-28T04:32:28.512Z,5.70
2023-02-28T04:34:55.657Z,5.20
2023-02-28T04:37:28.677Z,4.90
2023-02-28T04:39:56.141Z,5.30
2023-02-28T04:42:23.254Z,5.23
2023-02-28T04:44:50.402Z,4.97
2023-02-28T04:47:17.518Z,5.07
2023-02-28T04:49:44.667Z,5.50
2023-02-28T04:52:11.935Z,5.40
2023-02-28T04:54:39.922Z,6.83
2023-02-28T04:57:07.081Z,5.47
2023-02-28T04:59:34.438Z,5.20
2023-02-28T05:02:07.491Z,4.70
2023-02-28T05:04:38.155Z,5.27
2023-02-28T05:07:05.816Z,5.40
2023-02-28T05:09:33.987Z,5.00
2023-02-28T05:12:01.157Z,4.93
2023-02-28T05:14:35.628Z,4.50
2023-02-28T05:17:02.720Z,4.73
2023-02-28T05:19:29.893Z,5.80
2023-02-28T05:21:57.646Z,4.80
2023-02-28T05:24:24.876Z,5.10
2023-02-28T05:26:53.687Z,4.40
2023-02-28T05:29:20.828Z,4.90
2023-02-28T05:31:48.414Z,4.40
2023-02-28T05:34:16.977Z,4.70
2023-02-28T05:36:44.319Z,4.97
2023-02-28T05:39:13.531Z,4.80
2023-02-28T05:41:41.958Z,4.90
2023-02-28T05:44:09.497Z,4.73
2023-02-28T05:46:36.989Z,5.00
2023-02-28T05:49:04.277Z,5.23
2023-02-28T05:51:31.853Z,4.43
2023-02-28T05:54:02.509Z,4.60
2023-02-28T05:56:31.208Z,4.47
2023-02-28T05:58:58.406Z,5.20
2023-02-28T06:01:28.230Z,4.33
2023-02-28T06:03:55.485Z,4.90
2023-02-28T06:06:22.688Z,4.87
2023-02-28T06:08:49.914Z,4.67
2023-02-28T06:11:21.260Z,4.43
2023-02-28T06:13:48.496Z,4.73
2023-02-28T06:16:15.661Z,4.90
2023-02-28T06:18:42.843Z,4.10
2023-02-28T06:21:12.083Z,5.03
2023-02-28T06:23:39.306Z,4.77
2023-02-28T06:26:07.730Z,4.70
2023-02-28T06:28:35.446Z,5.13
2023-02-28T06:31:08.458Z,4.70
2023-02-28T06:33:35.777Z,5.13
2023-02-28T06:36:03.008Z,5.57
2023-02-28T06:38:30.188Z,4.70
2023-02-28T06:40:58.727Z,5.10
2023-02-28T06:43:26.556Z,4.90
2023-02-28T06:45:56.351Z,5.13
2023-02-28T06:48:23.599Z,5.00
2023-02-28T06:50:51.088Z,5.30
2023-02-28T06:53:18.258Z,5.53
2023-02-28T06:55:45.425Z,5.20
2023-02-28T06:58:22.110Z,5.10
2023-02-28T07:00:52.077Z,5.60
2023-02-28T07:03:19.677Z,4.90
2023-02-28T07:05:48.859Z,5.80
2023-02-28T07:08:16.151Z,7.33
2023-02-28T07:10:43.299Z,5.30
2023-02-28T07:13:10.650Z,5.10
2023-02-28T07:15:41.718Z,4.70
2023-02-28T07:18:10.163Z,5.10
2023-02-28T07:20:39.538Z,6.63
2023-02-28T07:23:06.706Z,6.33
2023-02-28T07:25:33.863Z,5.67
2023-02-28T07:28:01.143Z,5.83
2023-02-28T07:30:28.301Z,6.40
2023-02-28T07:32:56.944Z,5.70
2023-02-28T07:35:24.286Z,5.93
2023-02-28T07:37:52.385Z,5.60
2023-02-28T07:40:21.722Z,5.70
2023-02-28T07:42:48.876Z,6.53
2023-02-28T07:45:18.383Z,5.40
2023-02-28T07:47:45.673Z,6.50
2023-02-28T07:50:14.013Z,6.57
2023-02-28T07:52:41.692Z,4.87
2023-02-28T07:55:10.160Z,5.63
2023-02-28T07:57:37.707Z,6.17
2023-02-28T08:00:06.061Z,5.70
2023-02-28T08:02:38.741Z,6.43
2023-02-28T08:05:06.397Z,6.33
2023-02-28T08:07:34.387Z,5.40
2023-02-28T08:10:01.546Z,6.40
2023-02-28T08:12:29.828Z,6.13
2023-02-28T08:14:56.958Z,6.40
2023-02-28T08:17:24.189Z,5.80
2023-02-28T08:19:51.337Z,6.67
2023-02-28T08:22:18.515Z,6.37
2023-02-28T08:24:45.863Z,6.80
2023-02-28T08:27:14.929Z,6.10
2023-02-28T08:29:42.146Z,5.73
2023-02-28T08:32:23.631Z,4.90
2023-02-28T08:34:56.058Z,5.20
2023-02-28T08:37:23.237Z,5.90
2023-02-28T08:39:50.409Z,5.97
2023-02-28T08:42:17.889Z,5.87
2023-02-28T08:44:45.048Z,5.90
2023-02-28T08:47:12.244Z,5.40
2023-02-28T08:49:39.518Z,5.50
2023-02-28T08:52:07.015Z,9.77
2023-02-28T08:54:35.235Z,5.60
2023-02-28T08:57:02.478Z,5.53
2023-02-28T08:59:29.637Z,5.40
2023-02-28T09:01:57.184Z,5.80
2023-02-28T09:04:25.420Z,5.73
2023-02-28T09:06:52.814Z,6.30
2023-02-28T09:09:19.993Z,5.87
2023-02-28T09:11:47.474Z,5.47
2023-02-28T09:14:14.677Z,5.60
2023-02-28T09:16:41.827Z,5.50
2023-02-28T09:19:12.092Z,5.40
2023-02-28T09:21:39.233Z,6.50
2023-02-28T09:24:07.357Z,5.60
2023-02-28T09:26:42.666Z,5.60
2023-02-28T09:29:11.939Z,5.57
2023-02-28T09:31:39.145Z,4.83
2023-02-28T09:34:06.507Z,6.13
2023-02-28T09:36:44.787Z,5.47
2023-02-28T09:39:15.351Z,5.57
2023-02-28T09:41:51.436Z,6.30
2023-02-28T09:44:30.552Z,6.43
2023-02-28T09:47:00.536Z,5.80
2023-02-28T09:49:33.679Z,5.53
2023-02-28T09:52:10.000Z,6.50
2023-02-28T09:54:37.990Z,7.00
2023-02-28T09:57:17.511Z,5.97
2023-02-28T09:59:54.932Z,6.53
2023-02-28T10:02:42.981Z,7.03
2023-02-28T10:05:14.040Z,6.17
2023-02-28T10:07:58.359Z,6.23
2023-02-28T10:10:25.510Z,6.00
2023-02-28T10:12:55.154Z,6.97
2023-02-28T10:15:23.427Z,6.20
2023-02-28T10:17:55.249Z,6.23
2023-02-28T10:20:30.883Z,5.77
2023-02-28T10:23:08.455Z,6.30
2023-02-28T10:25:37.281Z,6.50
2023-02-28T10:28:07.450Z,7.27
2023-02-28T10:30:34.684Z,5.83
2023-02-28T10:33:01.871Z,7.50
2023-02-28T10:35:29.105Z,6.40
2023-02-28T10:37:58.353Z,7.33
2023-02-28T10:40:26.569Z,5.60
2023-02-28T10:43:04.646Z,6.87
2023-02-28T10:45:37.056Z,6.20
2023-02-28T10:48:16.427Z,6.60
2023-02-28T10:50:44.924Z,5.90
2023-02-28T10:53:12.034Z,8.17
2023-02-28T10:55:40.295Z,6.73
2023-02-28T10:58:22.140Z,6.13
2023-02-28T11:00:49.872Z,6.23
2023-02-28T11:03:30.221Z,6.37
2023-02-28T11:05:57.775Z,6.50
2023-02-28T11:08:25.445Z,5.23
2023-02-28T11:10:56.844Z,5.83
2023-02-28T11:13:27.715Z,5.53
2023-02-28T11:15:56.279Z,7.10
2023-02-28T11:18:31.134Z,6.80
2023-02-28T11:21:00.662Z,6.07
2023-02-28T11:23:31.071Z,5.60
2023-02-28T11:26:00.263Z,5.80
2023-02-28T11:28:35.101Z,6.43
2023-02-28T11:31:02.389Z,7.07
2023-02-28T11:33:30.734Z,6.77
2023-02-28T11:36:11.248Z,8.23
2023-02-28T11:38:39.100Z,6.40
2023-02-28T11:41:11.917Z,6.23
2023-02-28T11:43:53.778Z,6.40
2023-02-28T11:46:32.650Z,7.33
2023-02-28T11:49:04.501Z,7.07
2023-02-28T11:51:36.438Z,10.90
2023-02-28T11:54:03.579Z,7.63
2023-02-28T11:56:38.022Z,8.77
2023-02-28T11:59:15.322Z,10.07
2023-02-28T12:02:01.628Z,6.50
2023-02-28T12:04:34.758Z,7.03
2023-02-28T12:07:05.396Z,6.77
2023-02-28T12:09:42.435Z,7.60
2023-02-28T12:12:23.276Z,8.40
2023-02-28T12:15:00.754Z,6.70
2023-02-28T12:17:44.081Z,6.10
2023-02-28T12:20:30.482Z,7.37
2023-02-28T12:23:03.922Z,7.90
2023-02-28T12:25:44.547Z,6.60
2023-02-28T12:28:15.541Z,8.10
2023-02-28T12:30:52.762Z,8.60
2023-02-28T12:33:21.244Z,7.73
2023-02-28T12:35:56.434Z,8.67
2023-02-28T12:38:37.712Z,7.40
2023-02-28T12:41:08.704Z,7.10
2023-02-28T12:43:38.320Z,8.90
2023-02-28T12:46:18.715Z,7.70
2023-02-28T12:48:49.215Z,9.47
2023-02-28T12:51:18.010Z,8.07
2023-02-28T12:53:56.051Z,9.03
2023-02-28T12:56:32.258Z,8.40
2023-02-28T12:59:02.703Z,8.53
2023-02-28T13:01:44.639Z,7.97
2023-02-28T13:04:47.204Z,7.80
2023-02-28T13:07:36.604Z,7.33
2023-02-28T13:10:05.765Z,10.07
2023-02-28T13:12:34.258Z,8.50
2023-02-28T13:15:22.111Z,8.30
2023-02-28T13:17:51.640Z,8.37
2023-02-28T13:20:21.682Z,7.60
2023-02-28T13:22:50.624Z,7.70
2023-02-28T13:25:23.926Z,8.30
2023-02-28T13:27:57.901Z,8.80
2023-02-28T13:30:43.940Z,7.33
2023-02-28T13:33:32.457Z,7.67
2023-02-28T13:36:20.227Z,7.80
2023-02-28T13:39:03.079Z,8.70
2023-02-28T13:41:44.209Z,7.90
2023-02-28T13:44:30.671Z,7.80
2023-02-28T13:47:00.793Z,8.63
2023-02-28T13:49:32.912Z,7.90
2023-02-28T13:52:09.855Z,8.57
2023-02-28T13:54:57.456Z,8.40
2023-02-28T13:57:27.457Z,8.03
2023-02-28T14:00:07.330Z,7.80
2023-02-28T14:03:15.457Z,6.80
2023-02-28T14:05:43.094Z,7.50
2023-02-28T14:08:21.823Z,7.67
2023-02-28T14:11:04.442Z,7.47
2023-02-28T14:13:48.019Z,7.90
2023-02-28T14:16:18.153Z,10.23
2023-02-28T14:19:06.432Z,7.03
2023-02-28T14:21:36.739Z,7.97
2023-02-28T14:24:27.234Z,9.27
2023-02-28T14:27:07.984Z,8.17
2023-02-28T14:29:52.910Z,9.10
2023-02-28T14:32:36.504Z,8.57
2023-02-28T14:35:03.649Z,8.30
2023-02-28T14:37:35.369Z,7.93
2023-02-28T14:40:05.219Z,7.53
2023-02-28T14:42:33.976Z,7.93
2023-02-28T14:45:04.439Z,8.90
2023-02-28T14:47:36.783Z,8.53
2023-02-28T14:50:06.528Z,8.40
2023-02-28T14:52:35.224Z,7.80
2023-02-28T14:55:08.988Z,7.33
2023-02-28T14:57:42.076Z,9.07
2023-02-28T15:00:17.391Z,9.83
2023-02-28T15:02:44.978Z,8.93
2023-02-28T15:05:21.794Z,9.10
2023-02-28T15:07:51.051Z,9.50
2023-02-28T15:10:23.139Z,8.47
2023-02-28T15:12:54.180Z,9.60
2023-02-28T15:15:28.244Z,8.20
2023-02-28T15:18:05.043Z,9.10
2023-02-28T15:20:33.848Z,8.87
2023-02-28T15:23:01.602Z,8.57
2023-02-28T15:25:29.264Z,7.83
2023-02-28T15:27:58.286Z,8.00
2023-02-28T15:30:29.279Z,9.27
2023-02-28T15:33:18.162Z,8.40
2023-02-28T15:35:50.959Z,8.33
2023-02-28T15:38:28.790Z,7.00
2023-02-28T15:40:57.830Z,8.63
2023-02-28T15:43:34.514Z,7.73
2023-02-28T15:46:07.745Z,7.87
2023-02-28T15:48:39.039Z,8.80
2023-02-28T15:51:20.141Z,8.03
2023-02-28T15:53:54.252Z,8.57
2023-02-28T15:56:27.164Z,9.37
2023-02-28T15:59:02.736Z,7.70
2023-02-28T16:01:33.259Z,7.90
2023-02-28T16:04:08.744Z,8.50
2023-02-28T16:06:43.112Z,8.70
2023-02-28T16:09:29.892Z,8.70
2023-02-28T16:12:04.332Z,8.07
2023-02-28T16:14:36.572Z,8.53
2023-02-28T16:17:43.913Z,8.27
2023-02-28T16:20:17.866Z,8.30
2023-02-28T16:22:55.967Z,8.00
2023-02-28T16:25:26.497Z,8.70
2023-02-28T16:27:56.107Z,8.60
2023-02-28T16:30:27.091Z,7.73
2023-02-28T16:32:59.490Z,9.00
2023-02-28T16:35:28.574Z,8.77
2023-02-28T16:37:56.852Z,8.20
2023-02-28T16:40:26.489Z,8.60
2023-02-28T16:42:55.142Z,8.67
2023-02-28T16:45:32.962Z,7.77
2023-02-28T16:48:00.583Z,8.40
2023-02-28T16:50:31.800Z,8.20
2023-02-28T16:52:59.889Z,8.73
2023-02-28T16:55:27.802Z,9.13
2023-02-28T16:57:56.894Z,9.00
2023-02-28T17:00:28.097Z,9.30
2023-02-28T17:02:55.989Z,8.63
2023-02-28T17:05:24.840Z,8.83
2023-02-28T17:07:56.624Z,9.03
2023-02-28T17:10:25.388Z,8.10
2023-02-28T17:12:58.419Z,9.50
2023-02-28T17:15:32.255Z,8.80
2023-02-28T17:18:00.640Z,9.27
2023-02-28T17:20:29.329Z,8.20
2023-02-28T17:22:57.108Z,10.13
2023-02-28T17:25:33.130Z,8.20
2023-02-28T17:28:02.210Z,7.83
2023-02-28T17:30:34.701Z,9.80
2023-02-28T17:33:02.606Z,8.97
2023-02-28T17:35:32.214Z,9.40
2023-02-28T17:38:00.692Z,8.50
2023-02-28T17:40:29.929Z,9.13
2023-02-28T17:42:58.630Z,9.00
2023-02-28T17:45:26.372Z,9.07
2023-02-28T17:47:55.534Z,8.10
2023-02-28T17:50:23.957Z,9.20
2023-02-28T17:52:52.588Z,8.90
2023-02-28T17:55:23.643Z,8.37
2023-02-28T17:57:53.377Z,8.67
2023-02-28T18:00:24.808Z,9.03
2023-02-28T18:02:55.132Z,8.87
2023-02-28T18:05:25.552Z,9.20
2023-02-28T18:07:55.923Z,8.43
2023-02-28T18:10:25.284Z,8.17
2023-02-28T18:12:55.681Z,9.20
2023-02-28T18:15:26.583Z,9.60
2023-02-28T18:17:58.577Z,9.83
2023-02-28T18:20:29.084Z,10.37
2023-02-28T18:22:57.560Z,8.80
2023-02-28T18:25:27.816Z,8.90
2023-02-28T18:27:58.148Z,9.60
2023-02-28T18:30:30.881Z,8.83
2023-02-28T18:33:02.952Z,8.00
2023-02-28T18:35:37.727Z,9.20
2023-02-28T18:38:15.958Z,9.30
2023-02-28T18:40:44.428Z,9.00
2023-02-28T18:43:11.725Z,9.67
2023-02-28T18:45:40.783Z,10.00
2023-02-28T18:48:09.589Z,8.90
2023-02-28T18:50:39.808Z,9.37
2023-02-28T18:53:07.606Z,10.27
2023-02-28T18:55:39.405Z,10.10
2023-02-28T18:58:07.822Z,9.13
2023-02-28T19:00:36.387Z,9.60
2023-02-28T19:03:07.836Z,9.00
2023-02-28T19:05:35.747Z,8.43
2023-02-28T19:08:06.140Z,8.73
2023-02-28T19:10:33.673Z,9.13
2023-02-28T19:13:04.600Z,8.90
2023-02-28T19:15:34.076Z,9.20
2023-02-28T19:18:03.617Z,8.90
2023-02-28T19:20:32.656Z,9.87
2023-02-28T19:23:02.008Z,9.20
2023-02-28T19:25:33.872Z,9.30
2023-02-28T19:28:01.713Z,9.70
2023-02-28T19:30:30.929Z,10.00
2023-02-28T19:33:02.806Z,9.30
2023-02-28T19:35:36.866Z,9.53
2023-02-28T19:38:04.330Z,10.00
2023-02-28T19:40:34.463Z,10.73
2023-02-28T19:43:04.240Z,9.37
2023-02-28T19:45:38.782Z,9.60
2023-02-28T19:48:13.525Z,9.47
2023-02-28T19:50:42.782Z,10.73
2023-02-28T19:53:11.005Z,10.20
2023-02-28T19:55:38.528Z,9.33
2023-02-28T19:58:06.908Z,9.87
2023-02-28T20:00:34.822Z,10.90
2023-02-28T20:03:02.065Z,10.40
2023-02-28T20:05:29.288Z,11.07
2023-02-28T20:07:56.855Z,9.57
2023-02-28T20:10:24.648Z,10.67
2023-02-28T20:12:52.897Z,11.10
2023-02-28T20:15:20.361Z,10.67
2023-02-28T20:17:48.682Z,10.63
2023-02-28T20:20:16.470Z,10.53
2023-02-28T20:22:43.764Z,10.90
2023-02-28T20:25:11.467Z,10.47
2023-02-28T20:27:39.700Z,11.30
2023-02-28T20:30:07.277Z,12.57
2023-02-28T20:32:39.402Z,12.07
2023-02-28T20:35:08.745Z,11.00
2023-02-28T20:37:40.059Z,11.10
2023-02-28T20:40:10.110Z,11.97
2023-02-28T20:42:38.062Z,10.57
2023-02-28T20:45:05.409Z,10.77
2023-02-28T20:47:33.754Z,11.23
2023-02-28T20:50:02.656Z,11.07
2023-02-28T20:52:33.095Z,12.03
2023-02-28T20:55:00.764Z,10.83
2023-02-28T20:57:30.344Z,11.50
2023-02-28T21:00:02.039Z,11.20
2023-02-28T21:02:30.072Z,11.23
2023-02-28T21:04:57.303Z,11.10
2023-02-28T21:07:26.055Z,11.40
2023-02-28T21:09:54.847Z,11.60
2023-02-28T21:12:22.280Z,11.30
2023-02-28T21:14:57.321Z,11.63
2023-02-28T21:17:26.044Z,12.23
2023-02-28T21:19:53.774Z,12.83
2023-02-28T21:22:22.552Z,12.03
2023-02-28T21:24:53.614Z,10.97
2023-02-28T21:27:23.258Z,12.83
2023-02-28T21:29:50.448Z,11.80
2023-02-28T21:32:20.975Z,12.33
2023-02-28T21:34:51.784Z,12.70
2023-02-28T21:37:23.619Z,11.20
2023-02-28T21:39:54.946Z,11.97
2023-02-28T21:42:22.571Z,12.03
2023-02-28T21:44:50.228Z,11.70
2023-02-28T21:47:17.591Z,12.60
2023-02-28T21:49:44.801Z,11.93
2023-02-28T21:52:11.923Z,11.53
2023-02-28T21:54:39.062Z,11.50
2023-02-28T21:57:06.309Z,11.50
2023-02-28T21:59:34.213Z,12.43
2023-02-28T22:02:02.599Z,12.00
2023-02-28T22:04:30.781Z,12.67
2023-02-28T22:06:58.221Z,12.73
2023-02-28T22:09:25.991Z,12.27
2023-02-28T22:11:53.124Z,12.13
2023-02-28T22:14:21.080Z,12.10
2023-02-28T22:16:53.250Z,11.90
2023-02-28T22:19:21.786Z,13.80
2023-02-28T22:21:50.768Z,12.07
2023-02-28T22:24:20.787Z,12.87
2023-02-28T22:26:49.234Z,12.33
2023-02-28T22:29:16.488Z,11.60
2023-02-28T22:31:44.744Z,11.83
2023-02-28T22:34:12.913Z,11.43
2023-02-28T22:36:41.866Z,12.23
2023-02-28T22:39:09.214Z,11.50
2023-02-28T22:41:36.409Z,11.87
2023-02-28T22:44:05.016Z,11.30
2023-02-28T22:46:33.945Z,10.60
2023-02-28T22:49:02.913Z,12.90
2023-02-28T22:51:30.153Z,11.63
2023-02-28T22:53:58.085Z,12.40
2023-02-28T22:56:26.268Z,13.53
2023-02-28T22:58:54.684Z,11.60
2023-02-28T23:01:22.608Z,11.77
2023-02-28T23:03:50.355Z,11.70
2023-02-28T23:06:22.950Z,12.70
2023-02-28T23:08:51.315Z,13.87
2023-02-28T23:11:19.962Z,11.90
2023-02-28T23:13:58.226Z,11.73
2023-02-28T23:16:35.438Z,12.40
2023-02-28T23:19:04.950Z,12.03
2023-02-28T23:21:32.690Z,12.90
2023-02-28T23:24:02.711Z,11.53
2023-02-28T23:26:31.248Z,11.10
2023-02-28T23:28:59.286Z,12.87
2023-02-28T23:31:26.595Z,13.47
2023-02-28T23:33:54.022Z,12.40
2023-02-28T23:36:21.272Z,11.80
2023-02-28T23:38:50.296Z,10.80
2023-02-28T23:41:18.084Z,12.87
2023-02-28T23:43:45.405Z,12.73
2023-02-28T23:46:13.505Z,12.20
2023-02-28T23:48:41.378Z,11.13
2023-02-28T23:51:19.948Z,13.20
2023-02-28T23:53:48.404Z,12.47
2023-02-28T23:56:17.300Z,12.40
2023-02-28T23:58:45.875Z,13.87
